createdAt,value
2023-05-20T00:02:06.671Z,2.88
2023-05-20T00:04:33.373Z,2.67
2023-05-20T00:07:00.035Z,3.65
2023-05-20T00:09:26.895Z,7.10
2023-05-20T00:11:53.475Z,4.13
2023-05-20T00:14:20.093Z,5.20
2023-05-20T00:16:47.019Z,3.63
2023-05-20T00:19:13.759Z,11.13
2023-05-20T00:21:40.563Z,3.45
2023-05-20T00:24:07.135Z,4.35
2023-05-20T00:26:33.818Z,4.47
2023-05-20T00:29:01.148Z,3.92
2023-05-20T00:31:27.752Z,5.57
2023-05-20T00:33:54.435Z,1.90
2023-05-20T00:36:21.097Z,3.90
2023-05-20T00:38:47.878Z,4.15
2023-05-20T00:41:14.502Z,4.20
2023-05-20T00:43:41.500Z,4.95
2023-05-20T00:46:08.747Z,4.70
2023-05-20T00:48:43.830Z,5.07
2023-05-20T00:51:13.031Z,4.55
2023-05-20T00:53:40.034Z,2.15
2023-05-20T00:56:08.153Z,3.95
2023-05-20T00:58:39.019Z,2.70
2023-05-20T01:01:06.595Z,3.40
2023-05-20T01:03:33.781Z,3.83
2023-05-20T01:06:01.163Z,4.10
2023-05-20T01:08:28.569Z,4.20
2023-05-20T01:11:04.987Z,2.63
2023-05-20T01:13:43.183Z,4.00
2023-05-20T01:16:11.543Z,2.90
2023-05-20T01:18:39.569Z,2.97
2023-05-20T01:21:10.542Z,3.72
2023-05-20T01:23:41.535Z,2.45
2023-05-20T01:26:09.308Z,4.38
2023-05-20T01:28:38.684Z,2.50
2023-05-20T01:31:10.978Z,2.45
2023-05-20T01:33:42.064Z,3.70
2023-05-20T01:36:10.111Z,2.30
2023-05-20T01:38:40.069Z,4.10
2023-05-20T01:41:07.381Z,3.92
2023-05-20T01:43:35.045Z,4.45
2023-05-20T01:46:02.906Z,2.95
2023-05-20T01:48:29.648Z,1.92
2023-05-20T01:50:56.440Z,5.10
2023-05-20T01:53:23.175Z,5.10
2023-05-20T01:55:49.865Z,4.18
2023-05-20T01:58:16.559Z,4.85
2023-05-20T02:00:43.856Z,8.52
2023-05-20T02:03:11.273Z,4.53
2023-05-20T02:05:39.166Z,3.45
2023-05-20T02:08:06.391Z,3.42
2023-05-20T02:10:33.235Z,4.72
2023-05-20T02:12:59.845Z,4.18
2023-05-20T02:15:26.521Z,2.78
2023-05-20T02:17:53.840Z,3.20
2023-05-20T02:20:20.569Z,4.80
2023-05-20T02:22:47.186Z,5.88
2023-05-20T02:25:13.931Z,3.35
2023-05-20T02:27:40.783Z,5.50
2023-05-20T02:30:08.358Z,5.28
2023-05-20T02:32:35.841Z,6.40
2023-05-20T02:35:02.548Z,8.32
2023-05-20T02:37:29.593Z,2.95
2023-05-20T02:39:56.304Z,2.95
2023-05-20T02:42:23.009Z,4.28
2023-05-20T02:44:50.193Z,6.68
2023-05-20T02:47:18.070Z,3.55
2023-05-20T02:49:44.827Z,4.03
2023-05-20T02:52:11.565Z,3.70
2023-05-20T02:54:38.715Z,4.78
2023-05-20T02:57:05.581Z,5.95
2023-05-20T02:59:32.258Z,3.72
2023-05-20T03:01:59.112Z,3.75
2023-05-20T03:04:27.044Z,4.05
2023-05-20T03:06:53.835Z,2.72
2023-05-20T03:09:22.460Z,2.90
2023-05-20T03:11:49.841Z,3.28
2023-05-20T03:14:16.879Z,4.40
2023-05-20T03:16:44.136Z,7.85
2023-05-20T03:19:11.015Z,4.43
2023-05-20T03:21:37.768Z,4.55
2023-05-20T03:24:04.749Z,4.72
2023-05-20T03:26:33.245Z,4.28
2023-05-20T03:28:59.840Z,2.58
2023-05-20T03:31:27.379Z,3.45
2023-05-20T03:33:54.136Z,3.83
2023-05-20T03:36:21.085Z,3.63
2023-05-20T03:38:48.277Z,4.43
2023-05-20T03:41:15.012Z,3.30
2023-05-20T03:43:41.839Z,5.10
2023-05-20T03:46:08.523Z,3.65
2023-05-20T03:48:36.125Z,4.57
2023-05-20T03:51:04.132Z,3.85
2023-05-20T03:53:30.967Z,9.93
2023-05-20T03:55:57.661Z,2.78
2023-05-20T03:58:25.254Z,3.33
2023-05-20T04:00:51.998Z,5.80
2023-05-20T04:03:18.859Z,6.50
2023-05-20T04:05:46.582Z,6.78
2023-05-20T04:08:18.939Z,4.43
2023-05-20T04:10:46.417Z,5.22
2023-05-20T04:13:13.162Z,3.75
2023-05-20T04:15:41.461Z,3.88
2023-05-20T04:18:08.629Z,5.13
2023-05-20T04:20:36.039Z,5.97
2023-05-20T04:23:02.678Z,2.88
2023-05-20T04:25:30.060Z,4.53
2023-05-20T04:27:57.719Z,5.78
2023-05-20T04:30:24.644Z,6.70
2023-05-20T04:32:51.918Z,6.18
2023-05-20T04:35:19.300Z,4.38
2023-05-20T04:37:48.318Z,6.95
2023-05-20T04:40:15.574Z,7.50
2023-05-20T04:42:43.555Z,3.00
2023-05-20T04:45:12.418Z,5.65
2023-05-20T04:47:40.420Z,6.53
2023-05-20T04:50:13.485Z,5.72
2023-05-20T04:52:42.950Z,4.32
2023-05-20T04:55:15.867Z,4.78
2023-05-20T04:57:43.613Z,4.15
2023-05-20T05:00:12.595Z,6.30
2023-05-20T05:05:07.738Z,4.57
2023-05-20T05:07:34.529Z,4.20
2023-05-20T05:10:01.701Z,3.67
2023-05-20T05:12:30.376Z,5.72
2023-05-20T05:14:58.810Z,4.45
2023-05-20T05:17:26.350Z,6.47
2023-05-20T05:19:53.007Z,8.57
2023-05-20T05:22:19.987Z,4.57
2023-05-20T05:24:47.067Z,4.18
2023-05-20T05:27:13.938Z,4.90
2023-05-20T05:29:40.886Z,4.40
2023-05-20T05:32:07.749Z,3.03
2023-05-20T05:34:34.311Z,5.57
2023-05-20T05:37:01.066Z,5.70
2023-05-20T05:39:27.688Z,9.68
2023-05-20T05:41:56.203Z,4.25
2023-05-20T05:44:23.113Z,5.00
2023-05-20T05:46:49.754Z,5.13
2023-05-20T05:49:17.193Z,3.50
2023-05-20T05:51:44.392Z,4.07
2023-05-20T05:54:11.506Z,3.85
2023-05-20T05:56:38.174Z,5.15
2023-05-20T05:59:05.517Z,6.45
2023-05-20T06:01:32.194Z,5.03
2023-05-20T06:03:59.758Z,5.45
2023-05-20T06:06:26.912Z,7.20
2023-05-20T06:08:54.076Z,6.38
2023-05-20T06:11:21.760Z,5.72
2023-05-20T06:13:48.504Z,10.02
2023-05-20T06:16:15.596Z,4.88
2023-05-20T06:18:43.030Z,7.18
2023-05-20T06:21:09.704Z,4.82
2023-05-20T06:23:36.763Z,7.38
2023-05-20T06:26:05.869Z,7.45
2023-05-20T06:28:32.766Z,5.20
2023-05-20T06:30:59.447Z,5.13
2023-05-20T06:33:28.541Z,4.90
2023-05-20T06:36:01.667Z,7.07
2023-05-20T06:38:28.719Z,6.88
2023-05-20T06:40:56.083Z,5.55
2023-05-20T06:43:22.903Z,4.97
2023-05-20T06:48:35.161Z,4.93
2023-05-20T06:51:01.869Z,3.95
2023-05-20T06:53:28.536Z,5.60
2023-05-20T06:55:58.153Z,4.20
2023-05-20T06:58:25.906Z,5.07
2023-05-20T07:00:54.874Z,5.28
2023-05-20T07:03:21.714Z,7.95
2023-05-20T07:05:48.471Z,7.07
2023-05-20T07:08:15.334Z,4.65
2023-05-20T07:10:42.276Z,5.18
2023-05-20T07:13:08.988Z,7.70
2023-05-20T07:15:35.917Z,4.38
2023-05-20T07:18:02.945Z,4.70
2023-05-20T07:20:29.773Z,4.82
2023-05-20T07:22:58.397Z,6.53
2023-05-20T07:25:32.357Z,6.88
2023-05-20T07:28:00.469Z,3.67
2023-05-20T07:30:27.473Z,3.25
2023-05-20T07:33:10.142Z,6.28
2023-05-20T07:35:37.118Z,8.00
2023-05-20T07:38:03.868Z,9.68
2023-05-20T07:40:30.983Z,4.47
2023-05-20T07:42:57.623Z,6.57
2023-05-20T07:45:25.729Z,6.85
2023-05-20T07:47:52.453Z,9.88
2023-05-20T07:50:19.207Z,4.45
2023-05-20T07:52:55.902Z,4.70
2023-05-20T07:55:25.235Z,7.35
2023-05-20T07:57:52.291Z,5.35
2023-05-20T08:00:19.870Z,6.85
2023-05-20T08:02:46.579Z,5.55
2023-05-20T08:05:18.280Z,8.88
2023-05-20T08:07:46.398Z,7.43
2023-05-20T08:10:14.820Z,3.70
2023-05-20T08:12:42.725Z,5.85
2023-05-20T08:15:09.974Z,5.95
2023-05-20T08:17:38.677Z,7.25
2023-05-20T08:20:08.153Z,7.00
2023-05-20T08:22:37.522Z,5.28
2023-05-20T08:25:04.689Z,6.32
2023-05-20T08:27:31.554Z,6.57
2023-05-20T08:30:00.595Z,6.35
2023-05-20T08:32:28.036Z,6.07
2023-05-20T08:34:54.711Z,6.63
2023-05-20T08:37:21.966Z,4.63
2023-05-20T08:39:49.993Z,8.20
2023-05-20T08:42:21.772Z,6.38
2023-05-20T08:44:48.626Z,6.47
2023-05-20T08:47:15.487Z,5.20
2023-05-20T08:49:42.358Z,4.53
2023-05-20T08:52:11.434Z,4.53
2023-05-20T08:54:48.579Z,4.20
2023-05-20T08:57:15.732Z,6.35
2023-05-20T08:59:49.803Z,3.78
2023-05-20T09:02:17.478Z,4.60
2023-05-20T09:04:44.196Z,3.30
2023-05-20T09:07:10.923Z,6.82
2023-05-20T09:09:37.659Z,5.20
2023-05-20T09:12:04.772Z,4.07
2023-05-20T09:14:31.883Z,5.38
2023-05-20T09:16:58.658Z,4.82
2023-05-20T09:19:26.383Z,3.08
2023-05-20T09:21:54.850Z,3.72
2023-05-20T09:24:25.196Z,5.15
2023-05-20T09:26:52.729Z,3.55
2023-05-20T09:29:22.316Z,3.17
2023-05-20T09:31:50.176Z,5.93
2023-05-20T09:34:17.782Z,4.43
2023-05-20T09:36:45.245Z,3.58
2023-05-20T09:39:17.179Z,4.80
2023-05-20T09:41:55.434Z,3.60
2023-05-20T09:44:23.408Z,4.93
2023-05-20T09:46:50.923Z,4.00
2023-05-20T09:49:20.884Z,4.63
2023-05-20T09:51:48.260Z,3.55
2023-05-20T09:54:17.979Z,4.95
2023-05-20T09:56:46.346Z,4.03
2023-05-20T09:59:16.396Z,4.15
2023-05-20T10:01:45.071Z,2.80
2023-05-20T10:04:16.179Z,2.72
2023-05-20T10:07:30.528Z,4.47
2023-05-20T10:10:18.875Z,2.78
2023-05-20T10:13:22.929Z,3.90
2023-05-20T10:16:16.162Z,4.90
2023-05-20T10:19:22.769Z,3.97
2023-05-20T10:22:02.693Z,2.45
2023-05-20T10:24:34.402Z,18.13
2023-05-20T10:27:07.823Z,3.17
2023-05-20T10:29:52.036Z,5.72
2023-05-20T10:32:29.832Z,4.30
2023-05-20T10:35:05.498Z,4.30
2023-05-20T10:37:34.617Z,4.43
2023-05-20T10:40:14.140Z,2.33
2023-05-20T10:42:43.064Z,3.20
2023-05-20T10:45:10.637Z,2.85
2023-05-20T10:47:42.126Z,3.22
2023-05-20T10:50:26.604Z,5.95
2023-05-20T10:52:53.379Z,4.85
2023-05-20T10:55:22.364Z,3.78
2023-05-20T10:57:48.985Z,4.93
2023-05-20T11:00:18.728Z,3.20
2023-05-20T11:02:46.300Z,4.00
2023-05-20T11:05:14.662Z,2.88
2023-05-20T11:07:41.442Z,3.00
2023-05-20T11:10:11.923Z,8.73
2023-05-20T11:12:39.611Z,2.47
2023-05-20T11:15:06.750Z,3.90
2023-05-20T11:17:33.390Z,6.07
2023-05-20T11:20:01.075Z,6.50
2023-05-20T11:22:27.753Z,4.82
2023-05-20T11:24:54.400Z,4.18
2023-05-20T11:27:21.456Z,3.53
2023-05-20T11:29:50.971Z,4.32
2023-05-20T11:32:20.722Z,5.32
2023-05-20T11:34:51.733Z,4.60
2023-05-20T11:37:18.914Z,4.70
2023-05-20T11:39:46.147Z,6.43
2023-05-20T11:42:15.306Z,4.78
2023-05-20T11:44:45.425Z,2.83
2023-05-20T11:47:12.116Z,9.85
2023-05-20T11:49:41.767Z,5.68
2023-05-20T11:52:11.099Z,4.70
2023-05-20T11:57:06.881Z,3.38
2023-05-20T12:02:00.301Z,3.97
2023-05-20T12:04:27.302Z,3.15
2023-05-20T12:06:54.111Z,6.03
2023-05-20T12:09:22.711Z,3.60
2023-05-20T12:11:49.411Z,4.10
2023-05-20T12:14:16.385Z,4.32
2023-05-20T12:16:43.097Z,4.18
2023-05-20T12:19:09.806Z,6.50
2023-05-20T12:21:36.668Z,3.28
2023-05-20T12:24:05.317Z,5.60
2023-05-20T12:26:33.329Z,4.68
2023-05-20T12:28:59.997Z,3.67
2023-05-20T12:31:26.714Z,5.40
2023-05-20T12:33:53.412Z,3.00
2023-05-20T12:36:20.286Z,3.15
2023-05-20T12:38:47.399Z,5.35
2023-05-20T12:41:14.162Z,3.35
2023-05-20T12:43:40.784Z,3.95
2023-05-20T12:46:07.702Z,3.05
2023-05-20T12:48:34.500Z,4.80
2023-05-20T12:51:01.435Z,3.53
2023-05-20T12:53:28.059Z,4.60
2023-05-20T12:55:55.195Z,3.05
2023-05-20T12:58:21.914Z,3.90
2023-05-20T13:00:48.774Z,3.75
2023-05-20T13:03:15.661Z,3.78
2023-05-20T13:05:42.345Z,2.75
2023-05-20T13:08:10.158Z,3.53
2023-05-20T13:10:37.273Z,3.15
2023-05-20T13:13:04.413Z,3.67
2023-05-20T13:15:33.020Z,3.63
2023-05-20T13:18:01.507Z,2.40
2023-05-20T13:20:29.077Z,5.25
2023-05-20T13:22:55.715Z,3.83
2023-05-20T13:25:22.360Z,3.70
2023-05-20T13:27:49.055Z,4.18
2023-05-20T13:30:17.343Z,4.85
2023-05-20T13:32:44.025Z,2.30
2023-05-20T13:35:14.620Z,6.45
2023-05-20T13:37:41.399Z,2.13
2023-05-20T13:40:09.394Z,2.70
2023-05-20T13:42:38.146Z,2.45
2023-05-20T13:45:05.151Z,2.65
2023-05-20T13:47:32.202Z,4.72
2023-05-20T13:50:01.307Z,4.88
2023-05-20T13:52:29.432Z,3.75
2023-05-20T13:54:56.056Z,2.85
2023-05-20T13:57:23.459Z,8.52
2023-05-20T13:59:51.027Z,6.90
2023-05-20T14:02:17.984Z,3.67
2023-05-20T14:04:46.905Z,3.50
2023-05-20T14:07:13.922Z,1.95
2023-05-20T14:09:40.734Z,4.32
2023-05-20T14:12:07.585Z,3.47
2023-05-20T14:14:34.256Z,3.38
2023-05-20T14:17:00.914Z,3.70
2023-05-20T14:19:27.668Z,5.38
2023-05-20T14:21:54.752Z,3.25
2023-05-20T14:24:23.610Z,3.10
2023-05-20T14:26:50.721Z,3.25
2023-05-20T14:29:17.775Z,4.00
2023-05-20T14:31:44.830Z,3.08
2023-05-20T14:34:11.633Z,2.90
2023-05-20T14:36:38.769Z,4.35
2023-05-20T14:39:05.696Z,4.03
2023-05-20T14:41:32.367Z,4.00
2023-05-20T14:43:59.134Z,2.30
2023-05-20T14:46:27.009Z,4.43
2023-05-20T14:48:53.677Z,3.75
2023-05-20T14:51:20.351Z,5.53
2023-05-20T14:53:46.970Z,5.43
2023-05-20T14:56:13.678Z,3.22
2023-05-20T14:58:40.742Z,3.97
2023-05-20T15:01:07.457Z,4.70
2023-05-20T15:03:34.370Z,3.67
2023-05-20T15:06:01.128Z,3.53
2023-05-20T15:08:27.702Z,4.20
2023-05-20T15:10:54.430Z,3.53
2023-05-20T15:13:21.221Z,4.60
2023-05-20T15:15:47.812Z,4.55
2023-05-20T15:18:14.513Z,3.72
2023-05-20T15:20:41.532Z,3.88
2023-05-20T15:23:08.502Z,4.13
2023-05-20T15:25:35.961Z,4.88
2023-05-20T15:28:02.972Z,6.35
2023-05-20T15:30:29.600Z,3.08
2023-05-20T15:32:57.093Z,4.65
2023-05-20T15:35:23.780Z,5.18
2023-05-20T15:37:50.725Z,4.93
2023-05-20T15:40:18.166Z,7.22
2023-05-20T15:42:45.055Z,4.00
2023-05-20T15:45:11.930Z,6.38
2023-05-20T15:47:40.717Z,5.38
2023-05-20T15:50:08.631Z,3.88
2023-05-20T15:52:35.471Z,6.32
2023-05-20T15:55:02.461Z,4.15
2023-05-20T15:57:30.635Z,5.72
2023-05-20T15:59:57.618Z,5.60
2023-05-20T16:02:24.934Z,4.80
2023-05-20T16:04:52.323Z,6.25
2023-05-20T16:07:19.235Z,4.97
2023-05-20T16:09:46.401Z,6.28
2023-05-20T16:12:13.060Z,5.82
2023-05-20T16:14:39.862Z,8.07
2023-05-20T16:17:06.425Z,9.98
2023-05-20T16:19:33.307Z,7.38
2023-05-20T16:22:00.197Z,6.90
2023-05-20T16:24:27.016Z,6.55
2023-05-20T16:26:54.105Z,8.90
2023-05-20T16:29:20.925Z,15.73
2023-05-20T16:31:47.795Z,7.90
2023-05-20T16:34:15.772Z,6.20
2023-05-20T16:36:42.356Z,8.05
2023-05-20T16:39:09.061Z,7.47
2023-05-20T16:41:35.758Z,10.20
2023-05-20T16:44:02.470Z,11.05
2023-05-20T16:46:29.204Z,8.02
2023-05-20T16:48:56.039Z,6.43
2023-05-20T16:51:23.794Z,7.63
2023-05-20T16:53:50.599Z,8.02
2023-05-20T16:56:17.401Z,6.03
2023-05-20T16:58:44.042Z,5.20
2023-05-20T17:01:10.684Z,6.40
2023-05-20T17:03:37.285Z,7.30
2023-05-20T17:06:04.020Z,7.25
2023-05-20T17:08:30.796Z,8.45
2023-05-20T17:10:59.655Z,7.35
2023-05-20T17:13:26.413Z,7.93
2023-05-20T17:15:53.131Z,7.60
2023-05-20T17:18:19.887Z,7.50
2023-05-20T17:20:46.546Z,9.27
2023-05-20T17:23:14.776Z,7.25
2023-05-20T17:25:41.453Z,10.73
2023-05-20T17:28:08.241Z,9.77
2023-05-20T17:30:35.054Z,13.02
2023-05-20T17:33:01.901Z,9.45
2023-05-20T17:35:28.775Z,9.45
2023-05-20T17:37:55.529Z,7.93
2023-05-20T17:40:22.388Z,9.00
2023-05-20T17:42:49.107Z,11.38
2023-05-20T17:45:19.234Z,8.52
2023-05-20T17:47:45.977Z,11.70
2023-05-20T17:50:14.641Z,10.43
2023-05-20T17:52:41.405Z,8.97
2023-05-20T17:55:08.885Z,10.80
2023-05-20T17:57:35.598Z,7.03
2023-05-20T18:00:02.349Z,11.77
2023-05-20T18:04:58.662Z,9.85
2023-05-20T18:07:26.474Z,10.38
2023-05-20T18:09:53.077Z,10.55
2023-05-20T18:12:19.712Z,13.25
2023-05-20T18:14:46.546Z,11.07
2023-05-20T18:17:13.193Z,9.20
2023-05-20T18:19:39.887Z,10.88
2023-05-20T18:22:07.324Z,10.50
2023-05-20T18:24:34.026Z,10.50
2023-05-20T18:27:01.014Z,10.00
2023-05-20T18:29:27.604Z,8.70
2023-05-20T18:31:54.339Z,12.20
2023-05-20T18:34:21.286Z,11.30
2023-05-20T18:36:48.454Z,10.15
2023-05-20T18:39:20.227Z,10.10
2023-05-20T18:41:47.766Z,12.40
2023-05-20T18:44:15.542Z,9.65
2023-05-20T18:46:42.495Z,9.77
2023-05-20T18:49:13.061Z,9.95
2023-05-20T18:51:40.803Z,9.52
2023-05-20T18:54:07.708Z,8.07
2023-05-20T18:56:34.846Z,10.40
2023-05-20T18:59:01.719Z,11.45
2023-05-20T19:01:28.446Z,10.73
2023-05-20T19:03:55.156Z,8.57
2023-05-20T19:06:21.856Z,8.35
2023-05-20T19:08:49.473Z,8.88
2023-05-20T19:11:16.456Z,11.10
2023-05-20T19:13:43.132Z,9.82
2023-05-20T19:16:09.984Z,11.00
2023-05-20T19:18:36.664Z,7.60
2023-05-20T19:21:03.441Z,7.80
2023-05-20T19:23:30.508Z,10.50
2023-05-20T19:25:57.175Z,11.23
2023-05-20T19:28:23.839Z,9.10
2023-05-20T19:30:50.542Z,7.78
2023-05-20T19:33:17.276Z,9.30
2023-05-20T19:35:43.981Z,8.48
2023-05-20T19:38:10.667Z,11.77
2023-05-20T19:40:37.454Z,9.15
2023-05-20T19:43:04.347Z,11.85
2023-05-20T19:45:31.179Z,11.32
2023-05-20T19:47:58.313Z,9.73
2023-05-20T19:50:25.320Z,8.38
2023-05-20T19:52:52.392Z,7.18
2023-05-20T19:55:19.090Z,8.95
2023-05-20T19:57:47.591Z,8.40
2023-05-20T20:00:15.716Z,9.67
2023-05-20T20:02:42.456Z,10.98
2023-05-20T20:05:10.477Z,10.15
2023-05-20T20:07:37.359Z,9.65
2023-05-20T20:10:04.283Z,8.77
2023-05-20T20:12:30.884Z,9.82
2023-05-20T20:14:57.464Z,8.93
2023-05-20T20:17:24.255Z,9.65
2023-05-20T20:19:53.288Z,8.00
2023-05-20T20:22:20.149Z,8.30
2023-05-20T20:24:47.092Z,6.80
2023-05-20T20:27:13.893Z,8.13
2023-05-20T20:29:43.478Z,9.27
2023-05-20T20:32:10.884Z,8.68
2023-05-20T20:34:37.548Z,9.73
2023-05-20T20:37:04.371Z,9.82
2023-05-20T20:39:31.024Z,10.27
2023-05-20T20:41:58.992Z,7.15
2023-05-20T20:44:26.570Z,6.53
2023-05-20T20:46:55.009Z,7.88
2023-05-20T20:49:23.051Z,6.90
2023-05-20T20:51:50.204Z,6.20
2023-05-20T20:54:16.867Z,9.02
2023-05-20T20:56:45.551Z,6.60
2023-05-20T20:59:13.455Z,12.98
2023-05-20T21:01:41.812Z,7.72
2023-05-20T21:04:09.282Z,7.05
2023-05-20T21:06:37.796Z,8.02
2023-05-20T21:09:04.736Z,7.90
2023-05-20T21:11:31.769Z,7.30
2023-05-20T21:13:58.678Z,8.68
2023-05-20T21:16:25.601Z,7.65
2023-05-20T21:18:52.484Z,10.15
2023-05-20T21:21:21.694Z,9.15
2023-05-20T21:23:50.801Z,7.13
2023-05-20T21:26:17.616Z,6.47
2023-05-20T21:28:44.236Z,6.72
2023-05-20T21:31:10.950Z,7.43
2023-05-20T21:33:37.573Z,8.27
2023-05-20T21:36:04.753Z,9.82
2023-05-20T21:38:31.399Z,9.57
2023-05-20T21:40:58.646Z,7.88
2023-05-20T21:43:25.425Z,10.77
2023-05-20T21:45:52.265Z,6.32
2023-05-20T21:48:18.883Z,7.00
2023-05-20T21:50:45.600Z,6.28
2023-05-20T21:53:12.169Z,5.00
2023-05-20T21:55:39.341Z,10.02
2023-05-20T21:58:05.998Z,6.63
2023-05-20T22:00:32.814Z,7.65
2023-05-20T22:02:59.448Z,6.25
2023-05-20T22:05:26.359Z,4.88
2023-05-20T22:07:53.130Z,9.57
2023-05-20T22:10:20.931Z,6.18
2023-05-20T22:12:47.690Z,4.90
2023-05-20T22:15:17.477Z,6.07
2023-05-20T22:17:44.729Z,6.80
2023-05-20T22:20:12.619Z,6.85
2023-05-20T22:22:39.330Z,4.95
2023-05-20T22:25:06.839Z,9.25
2023-05-20T22:27:34.804Z,5.18
2023-05-20T22:30:01.898Z,8.07
2023-05-20T22:32:28.655Z,8.30
2023-05-20T22:34:58.542Z,7.68
2023-05-20T22:37:28.763Z,10.05
2023-05-20T22:39:56.337Z,5.45
2023-05-20T22:42:23.200Z,7.45
2023-05-20T22:44:50.077Z,6.82
2023-05-20T22:47:16.747Z,5.63
2023-05-20T22:49:44.951Z,6.82
2023-05-20T22:52:11.732Z,10.57
2023-05-20T22:54:38.363Z,5.75
2023-05-20T22:57:05.419Z,7.18
2023-05-20T22:59:32.800Z,6.22
2023-05-20T23:01:59.462Z,5.75
2023-05-20T23:04:26.225Z,8.07
2023-05-20T23:06:53.824Z,4.72
2023-05-20T23:09:21.014Z,5.53
2023-05-20T23:11:47.797Z,6.50
2023-05-20T23:14:14.430Z,6.55
2023-05-20T23:16:42.023Z,5.63
2023-05-20T23:19:09.164Z,7.32
2023-05-20T23:21:37.323Z,6.40
2023-05-20T23:24:04.521Z,7.80
2023-05-20T23:26:31.479Z,7.03
2023-05-20T23:28:58.204Z,6.88
2023-05-20T23:31:26.826Z,9.23
2023-05-20T23:33:54.050Z,8.03
2023-05-20T23:36:22.995Z,7.00
2023-05-20T23:38:49.709Z,7.47
2023-05-20T23:41:16.366Z,7.53
2023-05-20T23:43:43.023Z,9.00
2023-05-20T23:46:09.826Z,6.57
2023-05-20T23:48:36.664Z,9.55
2023-05-20T23:51:03.431Z,7.47
2023-05-20T23:53:30.127Z,6.80
2023-05-20T23:55:56.802Z,6.95
2023-05-20T23:58:23.666Z,6.88
